Time;durP1;ratioP1;P1;durP2;ratioP2;P2;SDS_P1;SDS_P2;PMS_P1;PMS_P2;Temp;Humidity;BMP_temperature;BMP_pressure;BME280_temperature;BME280_humidity;BME280_pressure;Samples;Min_cycle;Max_cycle;Signal;HPM_P1;HPM_P2
2022/04/19 00:01:50;;;;;;;;;;;20.40;30.20;;;;;;8331034;28;20000;-47
2022/04/19 00:05:50;;;;;;;;;;;20.40;30.30;;;;;;8329467;28;19921;-49
2022/04/19 00:09:51;;;;;;;;;;;20.30;30.20;;;;;;8330656;28;19921;-45
2022/04/19 00:13:52;;;;;;;;;;;20.40;30.30;;;;;;8330692;28;20344;-46
2022/04/19 00:17:52;;;;;;;;;;;20.40;30.30;;;;;;8330320;28;19998;-48
2022/04/19 00:21:53;;;;;;;;;;;20.40;30.30;;;;;;8330564;28;20004;-46
2022/04/19 00:25:53;;;;;;;;;;;20.30;30.30;;;;;;8330674;28;19923;-46
2022/04/19 00:29:53;;;;;;;;;;;20.30;30.30;;;;;;8330146;28;19921;-46
2022/04/19 00:33:54;;;;;;;;;;;20.30;30.30;;;;;;8330127;28;20059;-49
2022/04/19 00:37:54;;;;;;;;;;;20.30;30.30;;;;;;8330548;28;19913;-48
2022/04/19 00:41:56;;;;;;;;;;;20.30;30.30;;;;;;8329586;28;20404;-46
2022/04/19 00:45:57;;;;;;;;;;;20.30;30.30;;;;;;8330382;28;19913;-46
2022/04/19 00:49:57;;;;;;;;;;;20.20;30.30;;;;;;8330222;28;19971;-45
2022/04/19 00:53:58;;;;;;;;;;;20.20;30.30;;;;;;8329095;28;19925;-47
2022/04/19 00:57:59;;;;;;;;;;;20.20;30.30;;;;;;8330013;28;19920;-50
2022/04/19 01:02:00;;;;;;;;;;;20.20;30.30;;;;;;8330064;28;19921;-48
2022/04/19 01:06:00;;;;;;;;;;;20.20;30.30;;;;;;8328556;28;19921;-49
2022/04/19 01:10:01;;;;;;;;;;;20.20;30.30;;;;;;8329985;28;20003;-46
2022/04/19 01:14:02;;;;;;;;;;;20.20;30.40;;;;;;8329378;28;20012;-47
2022/04/19 01:18:02;;;;;;;;;;;20.20;30.30;;;;;;8331309;28;19921;-46
2022/04/19 01:22:04;;;;;;;;;;;20.20;30.40;;;;;;8335771;28;20413;-45
2022/04/19 01:26:06;;;;;;;;;;;20.20;30.40;;;;;;8335900;28;20334;-46
2022/04/19 01:30:08;;;;;;;;;;;20.10;30.30;;;;;;8334782;28;20390;-48
2022/04/19 01:34:09;;;;;;;;;;;20.10;30.30;;;;;;8335508;28;19921;-46
2022/04/19 01:38:09;;;;;;;;;;;20.10;30.40;;;;;;8335361;28;19975;-46
2022/04/19 01:42:10;;;;;;;;;;;20.10;30.30;;;;;;8334254;28;19925;-45
2022/04/19 01:46:11;;;;;;;;;;;20.10;30.40;;;;;;8334893;28;19920;-46
2022/04/19 01:50:12;;;;;;;;;;;20.10;30.40;;;;;;8334842;28;19917;-46
2022/04/19 01:54:14;;;;;;;;;;;20.10;30.40;;;;;;8333995;28;20404;-46
2022/04/19 01:58:17;;;;;;;;;;;20.10;30.40;;;;;;8334328;28;19924;-45
2022/04/19 02:02:17;;;;;;;;;;;20.10;30.40;;;;;;8334188;28;19936;-46
2022/04/19 02:06:20;;;;;;;;;;;20.00;30.40;;;;;;8333666;28;19921;-46
2022/04/19 02:10:21;;;;;;;;;;;20.00;30.40;;;;;;8334112;28;19975;-45
2022/04/19 02:14:23;;;;;;;;;;;20.00;30.40;;;;;;8333849;28;20374;-45
2022/04/19 02:18:24;;;;;;;;;;;20.00;30.40;;;;;;8333318;28;19921;-45
2022/04/19 02:22:25;;;;;;;;;;;20.00;30.40;;;;;;8333599;28;19924;-46
2022/04/19 02:26:25;;;;;;;;;;;20.00;30.40;;;;;;8333785;28;20301;-45
2022/04/19 02:30:26;;;;;;;;;;;20.00;30.40;;;;;;8332461;28;20275;-47
2022/04/19 02:34:26;;;;;;;;;;;20.00;30.40;;;;;;8333254;28;20007;-45
2022/04/19 02:38:26;;;;;;;;;;;19.90;30.40;;;;;;8332768;28;19920;-44
2022/04/19 02:42:27;;;;;;;;;;;19.90;30.40;;;;;;8332947;28;19920;-45
2022/04/19 02:46:29;;;;;;;;;;;19.90;30.40;;;;;;8332980;28;19917;-45
2022/04/19 02:50:33;;;;;;;;;;;19.90;30.40;;;;;;8332276;28;19935;-46
2022/04/19 02:54:34;;;;;;;;;;;19.90;30.50;;;;;;8332580;28;19917;-48
2022/04/19 02:58:34;;;;;;;;;;;19.90;30.40;;;;;;8332392;28;19928;-47
2022/04/19 03:02:34;;;;;;;;;;;19.90;30.40;;;;;;8331734;28;20400;-47
2022/04/19 03:06:35;;;;;;;;;;;19.90;30.50;;;;;;8332699;28;20397;-50
2022/04/19 03:10:36;;;;;;;;;;;19.80;30.40;;;;;;8332054;28;19932;-46
2022/04/19 03:14:37;;;;;;;;;;;19.80;30.40;;;;;;8331706;28;19920;-46
2022/04/19 03:18:37;;;;;;;;;;;19.80;30.50;;;;;;8331861;28;19917;-48
2022/04/19 03:31:17;;;;;;;;;;;19.80;30.50;;;;;;8331651;28;19971;-47
2022/04/19 03:35:17;;;;;;;;;;;19.80;30.50;;;;;;8331362;28;19917;-47
2022/04/19 03:39:18;;;;;;;;;;;19.80;30.60;;;;;;8330825;28;19940;-46
2022/04/19 03:43:18;;;;;;;;;;;19.80;30.60;;;;;;8330418;28;19971;-45
2022/04/19 03:47:20;;;;;;;;;;;19.80;30.60;;;;;;8331265;28;20039;-45
2022/04/19 03:51:20;;;;;;;;;;;19.70;30.50;;;;;;8330245;28;19956;-47
2022/04/19 03:55:23;;;;;;;;;;;19.80;30.60;;;;;;8330815;28;19917;-49
2022/04/19 03:59:23;;;;;;;;;;;19.70;30.60;;;;;;8330816;28;20361;-47
2022/04/19 04:03:23;;;;;;;;;;;19.70;30.60;;;;;;8330054;28;19921;-50
2022/04/19 04:07:26;;;;;;;;;;;19.70;30.60;;;;;;8330332;28;19921;-47
2022/04/19 04:11:27;;;;;;;;;;;19.70;30.60;;;;;;8330045;28;19925;-46
2022/04/19 04:15:27;;;;;;;;;;;19.70;30.60;;;;;;8330432;28;20286;-46
2022/04/19 04:19:27;;;;;;;;;;;19.70;30.70;;;;;;8330391;28;19917;-50
2022/04/19 04:23:30;;;;;;;;;;;19.70;30.70;;;;;;8329693;28;20328;-47
2022/04/19 04:27:30;;;;;;;;;;;19.70;30.70;;;;;;8330476;28;19917;-46
2022/04/19 04:31:31;;;;;;;;;;;19.70;30.70;;;;;;8329943;28;19936;-48
2022/04/19 04:35:31;;;;;;;;;;;19.70;30.70;;;;;;8329388;28;19917;-47
2022/04/19 04:39:32;;;;;;;;;;;19.70;30.70;;;;;;8330370;28;20297;-47
2022/04/19 04:43:32;;;;;;;;;;;19.70;30.70;;;;;;8329779;28;19921;-51
2022/04/19 04:51:52;;;;;;;;;;;19.60;30.60;;;;;;8330681;28;20401;-46
2022/04/19 04:55:52;;;;;;;;;;;19.70;30.70;;;;;;8336305;28;19917;-46
2022/04/19 04:59:53;;;;;;;;;;;19.60;30.60;;;;;;8335780;28;19999;-47
2022/04/19 05:03:53;;;;;;;;;;;19.60;30.60;;;;;;8336031;28;20293;-48
2022/04/19 05:07:54;;;;;;;;;;;19.60;30.70;;;;;;8336222;28;20396;-49
2022/04/19 05:11:54;;;;;;;;;;;19.60;30.70;;;;;;8317549;28;20025;-47
2022/04/19 05:15:58;;;;;;;;;;;19.60;30.60;;;;;;8335898;28;19945;-46
2022/04/19 05:19:58;;;;;;;;;;;19.60;30.70;;;;;;8335533;28;20003;-49
2022/04/19 05:23:59;;;;;;;;;;;19.60;30.70;;;;;;8334879;28;19917;-48
2022/04/19 05:27:59;;;;;;;;;;;19.60;30.70;;;;;;8335431;28;19936;-47
2022/04/19 05:32:00;;;;;;;;;;;19.50;30.60;;;;;;8335026;28;19932;-47
2022/04/19 05:36:00;;;;;;;;;;;19.50;30.60;;;;;;8334417;28;19917;-48
2022/04/19 05:40:01;;;;;;;;;;;19.50;30.70;;;;;;8335140;28;19965;-45
2022/04/19 05:44:01;;;;;;;;;;;19.50;30.60;;;;;;8334823;28;19917;-46
2022/04/19 05:48:01;;;;;;;;;;;19.50;30.60;;;;;;8334514;28;20453;-47
2022/04/19 05:52:02;;;;;;;;;;;19.50;30.60;;;;;;8334459;28;20442;-48
2022/04/19 05:56:02;;;;;;;;;;;19.50;30.60;;;;;;8334515;28;19918;-47
2022/04/19 06:00:03;;;;;;;;;;;19.50;30.50;;;;;;8334069;28;19917;-50
2022/04/19 06:08:24;;;;;;;;;;;19.60;30.50;;;;;;8315922;28;22074;-47
2022/04/19 06:12:24;;;;;;;;;;;19.60;30.40;;;;;;8333582;28;20397;-47
2022/04/19 06:16:25;;;;;;;;;;;19.70;30.40;;;;;;8333836;28;19917;-49
2022/04/19 06:20:25;;;;;;;;;;;19.70;30.30;;;;;;8333683;28;20301;-49
2022/04/19 06:24:26;;;;;;;;;;;19.70;30.30;;;;;;8333469;28;19917;-47
2022/04/19 06:28:27;;;;;;;;;;;19.80;30.20;;;;;;8333746;28;19966;-47
2022/04/19 06:32:27;;;;;;;;;;;19.80;30.20;;;;;;8332958;28;19929;-47
2022/04/19 06:36:28;;;;;;;;;;;19.80;30.20;;;;;;8333217;28;19959;-47
2022/04/19 06:40:28;;;;;;;;;;;19.90;30.10;;;;;;8333375;28;19924;-46
2022/04/19 06:44:29;;;;;;;;;;;19.90;30.00;;;;;;8332614;28;19971;-45
2022/04/19 06:48:29;;;;;;;;;;;19.90;30.00;;;;;;8332973;28;19992;-46
2022/04/19 06:52:30;;;;;;;;;;;20.10;29.90;;;;;;8332576;28;19995;-47
2022/04/19 06:56:31;;;;;;;;;;;20.30;29.70;;;;;;8332157;28;19943;-51
2022/04/19 07:00:31;;;;;;;;;;;20.40;29.50;;;;;;8332648;28;19923;-46
2022/04/19 07:04:32;;;;;;;;;;;20.40;29.40;;;;;;8332302;28;19921;-45
2022/04/19 07:08:32;;;;;;;;;;;20.50;29.40;;;;;;8331908;28;19913;-45
2022/04/19 07:12:33;;;;;;;;;;;20.50;29.40;;;;;;8331792;28;19925;-49
2022/04/19 07:16:33;;;;;;;;;;;20.50;29.40;;;;;;8332028;28;19917;-47
2022/04/19 07:29:12;;;;;;;;;;;20.30;29.60;;;;;;8331762;28;19920;-47
2022/04/19 07:33:13;;;;;;;;;;;20.30;29.70;;;;;;8331013;28;20012;-46
2022/04/19 07:37:13;;;;;;;;;;;20.30;29.80;;;;;;8331402;28;19924;-46
2022/04/19 07:41:13;;;;;;;;;;;20.30;29.80;;;;;;8331560;28;19921;-46
2022/04/19 07:45:15;;;;;;;;;;;20.30;29.70;;;;;;8330683;28;19924;-46
2022/04/19 07:49:15;;;;;;;;;;;20.30;29.80;;;;;;8331475;28;20392;-47
2022/04/19 07:53:16;;;;;;;;;;;20.20;29.80;;;;;;8330690;28;19925;-46
2022/04/19 07:57:20;;;;;;;;;;;20.20;29.90;;;;;;8330260;28;19952;-47
2022/04/19 08:01:20;;;;;;;;;;;20.20;29.90;;;;;;8330821;28;19928;-45
2022/04/19 08:05:22;;;;;;;;;;;20.20;30.00;;;;;;8330366;28;19921;-44
2022/04/19 08:09:22;;;;;;;;;;;20.10;30.00;;;;;;8330088;28;19955;-44
2022/04/19 08:13:23;;;;;;;;;;;20.10;30.00;;;;;;8330369;28;19925;-48
2022/04/19 08:17:24;;;;;;;;;;;20.10;30.10;;;;;;8330483;28;19956;-45
2022/04/19 08:21:24;;;;;;;;;;;20.10;30.20;;;;;;8329615;28;20321;-48
2022/04/19 08:25:25;;;;;;;;;;;20.10;30.20;;;;;;8329993;28;19999;-48
2022/04/19 08:29:25;;;;;;;;;;;20.10;30.30;;;;;;8329961;28;19937;-47
2022/04/19 08:33:25;;;;;;;;;;;20.10;30.30;;;;;;8329283;28;19925;-45
2022/04/19 08:37:34;;;;;;;;;;;20.10;30.30;;;;;;8329644;28;20404;-48
2022/04/19 08:41:35;;;;;;;;;;;20.10;30.40;;;;;;8329091;28;19918;-46
2022/04/19 08:45:36;;;;;;;;;;;20.10;30.40;;;;;;8329910;28;20424;-47
2022/04/19 08:49:37;;;;;;;;;;;20.10;30.40;;;;;;8330037;28;19913;-48
2022/04/19 08:58:13;;;;;;;;;;;20.10;30.40;;;;;;8278112;28;19935;-46
2022/04/19 09:02:25;;;;;;;;;;;20.10;30.40;;;;;;8329664;28;19917;-46
2022/04/19 09:06:44;;;;;;;;;;;20.10;30.90;;;;;;8328855;28;19928;-48
2022/04/19 09:10:45;;;;;;;;;;;20.20;30.40;;;;;;8329361;28;19948;-46
2022/04/19 09:14:56;;;;;;;;;;;20.20;30.40;;;;;;8329012;28;19931;-48
2022/04/19 09:18:56;;;;;;;;;;;20.20;30.40;;;;;;8329567;28;19917;-46
2022/04/19 09:23:10;;;;;;;;;;;20.20;30.50;;;;;;8354541;28;19917;-47
2022/04/19 09:27:10;;;;;;;;;;;20.20;30.40;;;;;;8361550;28;20087;-48
2022/04/19 09:31:11;;;;;;;;;;;20.30;30.40;;;;;;8344064;28;20011;-48
2022/04/19 09:35:11;;;;;;;;;;;20.30;30.50;;;;;;8362174;28;20011;-44
2022/04/19 09:39:24;;;;;;;;;;;20.30;30.50;;;;;;8362778;28;19972;-47
2022/04/19 09:43:25;;;;;;;;;;;20.30;30.40;;;;;;8367669;28;19917;-46
2022/04/19 09:47:26;;;;;;;;;;;20.30;30.40;;;;;;8367485;28;20027;-47
2022/04/19 09:51:30;;;;;;;;;;;20.30;30.50;;;;;;8367392;28;19932;-46
2022/04/19 09:55:33;;;;;;;;;;;20.30;30.40;;;;;;8367454;28;20003;-45
2022/04/19 09:59:38;;;;;;;;;;;20.40;30.50;;;;;;8367074;28;19920;-48
2022/04/19 10:08:10;;;;;;;;;;;20.40;30.50;;;;;;8333644;28;19923;-45
2022/04/19 10:12:11;;;;;;;;;;;20.40;30.50;;;;;;8333334;28;20441;-44
2022/04/19 10:16:13;;;;;;;;;;;20.40;30.40;;;;;;8333668;28;19917;-46
2022/04/19 10:20:14;;;;;;;;;;;20.50;30.50;;;;;;8333955;28;19918;-45
2022/04/19 10:24:15;;;;;;;;;;;20.50;30.40;;;;;;8332848;28;19917;-46
2022/04/19 10:28:26;;;;;;;;;;;20.50;30.40;;;;;;8333174;28;19917;-49
2022/04/19 10:32:33;;;;;;;;;;;20.60;30.50;;;;;;8332829;28;19925;-49
2022/04/19 10:36:34;;;;;;;;;;;20.60;30.40;;;;;;8333473;28;19917;-48
2022/04/19 10:40:50;;;;;;;;;;;20.60;30.50;;;;;;8333120;28;19913;-49
2022/04/19 10:44:52;;;;;;;;;;;20.60;30.50;;;;;;8332640;28;20305;-48
2022/04/19 10:49:12;;;;;;;;;;;20.60;30.50;;;;;;8332880;28;20374;-50
2022/04/19 10:53:13;;;;;;;;;;;20.60;30.50;;;;;;8332341;28;19933;-45
2022/04/19 10:58:05;;;;;;;;;;;20.70;30.50;;;;;;8331793;28;20012;-47
2022/04/19 11:01:35;;;;;;;;;;;20.70;30.50;;;;;;8332379;28;19956;-48
2022/04/19 11:05:38;;;;;;;;;;;20.70;30.50;;;;;;8331547;28;19928;-45
2022/04/19 11:09:58;;;;;;;;;;;20.70;31.00;;;;;;8332597;28;19917;-46
2022/04/19 11:14:15;;;;;;;;;;;20.70;30.50;;;;;;8331653;28;19931;-48
2022/04/19 11:18:22;;;;;;;;;;;20.70;30.40;;;;;;8331317;28;20015;-46
2022/04/19 11:22:23;;;;;;;;;;;20.80;30.50;;;;;;8331881;28;19940;-48
2022/04/19 11:26:36;;;;;;;;;;;20.80;30.50;;;;;;8331623;28;19917;-47
2022/04/19 11:31:03;;;;;;;;;;;20.80;30.50;;;;;;8331332;28;19952;-46
2022/04/19 11:35:04;;;;;;;;;;;20.90;30.40;;;;;;8327891;28;19924;-46
2022/04/19 11:39:04;;;;;;;;;;;20.90;30.50;;;;;;8330869;28;19923;-46
2022/04/19 11:47:43;;;;;;;;;;;20.90;30.40;;;;;;8330721;28;19924;-48
2022/04/19 11:51:49;;;;;;;;;;;21.00;30.40;;;;;;8331024;28;19968;-45
2022/04/19 11:55:51;;;;;;;;;;;21.00;30.40;;;;;;8331053;28;19913;-46
2022/04/19 11:59:53;;;;;;;;;;;21.00;30.40;;;;;;8330266;28;20366;-46
2022/04/19 12:03:54;;;;;;;;;;;21.00;30.30;;;;;;8329607;28;19921;-50
2022/04/19 12:07:56;;;;;;;;;;;21.00;30.30;;;;;;8330453;28;19925;-45
2022/04/19 12:11:57;;;;;;;;;;;21.10;30.30;;;;;;8329861;28;19968;-45
2022/04/19 12:16:00;;;;;;;;;;;21.10;30.30;;;;;;8330814;28;20288;-46
2022/04/19 12:20:02;;;;;;;;;;;21.10;30.30;;;;;;8330232;28;19999;-46
2022/04/19 12:24:03;;;;;;;;;;;21.10;30.30;;;;;;8329528;28;19924;-46
2022/04/19 12:28:09;;;;;;;;;;;21.10;30.30;;;;;;8330091;28;19923;-48
2022/04/19 12:32:10;;;;;;;;;;;21.20;30.30;;;;;;8329960;28;20401;-50
2022/04/19 12:36:11;;;;;;;;;;;21.20;30.30;;;;;;8329496;28;19963;-46
2022/04/19 12:40:12;;;;;;;;;;;21.20;30.30;;;;;;8329798;28;19921;-45
2022/04/19 12:44:12;;;;;;;;;;;21.20;30.30;;;;;;8329705;28;20032;-45
2022/04/19 12:48:19;;;;;;;;;;;21.20;30.30;;;;;;8329078;28;19979;-44
2022/04/19 12:52:19;;;;;;;;;;;21.20;30.30;;;;;;8329215;28;19925;-47
2022/04/19 12:56:20;;;;;;;;;;;21.20;30.30;;;;;;8329503;28;19920;-45
2022/04/19 13:00:21;;;;;;;;;;;21.20;30.20;;;;;;8329024;28;20073;-45
2022/04/19 13:04:22;;;;;;;;;;;21.30;30.30;;;;;;8329473;28;19979;-43
2022/04/19 13:12:42;;;;;;;;;;;21.30;30.30;;;;;;8329014;28;19936;-47
2022/04/19 13:16:42;;;;;;;;;;;21.30;30.30;;;;;;8335348;28;19957;-45
2022/04/19 13:20:42;;;;;;;;;;;21.30;30.20;;;;;;8334990;28;19953;-49
2022/04/19 13:24:43;;;;;;;;;;;21.40;30.30;;;;;;8335235;28;19917;-45
2022/04/19 13:28:43;;;;;;;;;;;21.40;30.30;;;;;;8335345;28;19960;-45
2022/04/19 13:32:44;;;;;;;;;;;21.40;30.30;;;;;;8334506;28;20004;-45
2022/04/19 13:36:44;;;;;;;;;;;21.40;30.30;;;;;;8334880;28;19913;-46
2022/04/19 13:40:45;;;;;;;;;;;21.40;30.30;;;;;;8334963;28;20004;-47
2022/04/19 13:44:45;;;;;;;;;;;21.40;30.30;;;;;;8334426;28;20008;-49
2022/04/19 13:48:46;;;;;;;;;;;21.50;30.40;;;;;;8334613;28;19921;-46
2022/04/19 13:52:46;;;;;;;;;;;21.40;30.30;;;;;;8334447;28;20354;-46
2022/04/19 13:56:47;;;;;;;;;;;21.50;30.40;;;;;;8333836;28;19920;-47
2022/04/19 14:00:47;;;;;;;;;;;21.50;30.30;;;;;;8334604;28;20370;-48
2022/04/19 14:04:48;;;;;;;;;;;21.50;30.30;;;;;;8334305;28;20409;-45
2022/04/19 14:08:48;;;;;;;;;;;21.50;30.30;;;;;;8333451;28;19924;-46
2022/04/19 14:12:49;;;;;;;;;;;21.50;30.30;;;;;;8333700;28;19925;-49
2022/04/19 14:16:49;;;;;;;;;;;21.50;30.30;;;;;;8333972;28;19913;-49
2022/04/19 14:20:50;;;;;;;;;;;21.50;30.30;;;;;;8333367;28;19917;-45
2022/04/19 14:24:55;;;;;;;;;;;21.60;30.40;;;;;;8332598;28;20337;-46
2022/04/19 14:33:19;;;;;;;;;;;21.60;30.30;;;;;;8304973;28;19979;-45
2022/04/19 14:37:20;;;;;;;;;;;21.60;30.30;;;;;;8333339;28;19925;-46
2022/04/19 14:41:20;;;;;;;;;;;21.60;30.30;;;;;;8333244;28;20004;-47
2022/04/19 14:45:20;;;;;;;;;;;21.60;30.30;;;;;;8332366;28;20096;-48
2022/04/19 14:49:21;;;;;;;;;;;21.60;30.20;;;;;;8332742;28;19921;-46
2022/04/19 14:53:21;;;;;;;;;;;21.60;30.30;;;;;;8332617;28;19947;-46
2022/04/19 14:57:23;;;;;;;;;;;21.60;30.30;;;;;;8332071;28;20393;-45
2022/04/19 15:01:24;;;;;;;;;;;21.60;30.30;;;;;;8332826;28;19913;-45
2022/04/19 15:05:24;;;;;;;;;;;21.60;30.30;;;;;;8332246;28;19928;-46
2022/04/19 15:09:24;;;;;;;;;;;21.60;30.30;;;;;;8331817;28;20004;-46
2022/04/19 15:13:25;;;;;;;;;;;21.60;30.30;;;;;;8331960;28;19979;-47
2022/04/19 15:17:25;;;;;;;;;;;21.60;30.20;;;;;;8331987;28;20388;-46
2022/04/19 15:21:26;;;;;;;;;;;21.60;30.20;;;;;;8331608;28;19925;-46
2022/04/19 15:25:27;;;;;;;;;;;21.60;30.20;;;;;;8332003;28;19945;-47
2022/04/19 15:29:31;;;;;;;;;;;21.60;30.20;;;;;;8331331;28;19913;-46
2022/04/19 15:33:31;;;;;;;;;;;21.60;30.20;;;;;;8331544;28;19928;-49
2022/04/19 15:37:32;;;;;;;;;;;21.60;30.30;;;;;;8330980;28;19914;-46
2022/04/19 15:41:32;;;;;;;;;;;21.60;30.20;;;;;;8330886;28;19924;-47
2022/04/19 15:45:34;;;;;;;;;;;21.60;30.20;;;;;;8330786;28;19921;-47
2022/04/19 15:49:34;;;;;;;;;;;21.60;30.20;;;;;;8330869;28;19918;-46
2022/04/19 15:53:36;;;;;;;;;;;21.60;30.20;;;;;;8330353;28;19971;-45
2022/04/19 15:57:37;;;;;;;;;;;21.60;30.20;;;;;;8330799;28;19966;-45
2022/04/19 16:01:37;;;;;;;;;;;21.60;30.20;;;;;;8361689;28;19924;-44
2022/04/19 16:05:38;;;;;;;;;;;21.50;30.10;;;;;;8332230;28;19929;-46
2022/04/19 16:09:38;;;;;;;;;;;21.50;30.30;;;;;;8325599;28;19924;-47
2022/04/19 16:13:40;;;;;;;;;;;21.50;30.20;;;;;;8327565;28;19987;-46
2022/04/19 16:26:19;;;;;;;;;;;21.60;30.20;;;;;;8333307;28;19955;-48
2022/04/19 16:30:19;;;;;;;;;;;21.60;30.20;;;;;;8329733;28;19917;-47
2022/04/19 16:34:20;;;;;;;;;;;21.60;30.10;;;;;;8330089;28;20019;-49
2022/04/19 16:38:21;;;;;;;;;;;21.50;30.10;;;;;;8330020;28;19917;-48
2022/04/19 16:42:23;;;;;;;;;;;21.60;30.20;;;;;;8329729;28;19924;-48
2022/04/19 16:46:24;;;;;;;;;;;21.60;30.20;;;;;;8329806;28;19917;-47
2022/04/19 16:50:24;;;;;;;;;;;21.50;30.10;;;;;;8334493;28;19921;-48
2022/04/19 16:54:26;;;;;;;;;;;21.50;30.20;;;;;;8335907;28;19986;-48
2022/04/19 16:58:27;;;;;;;;;;;21.50;30.20;;;;;;8336287;28;19924;-47
2022/04/19 17:02:29;;;;;;;;;;;21.50;30.20;;;;;;8335914;28;20015;-46
2022/04/19 17:06:30;;;;;;;;;;;21.50;30.20;;;;;;8336128;28;20366;-47
2022/04/19 17:10:31;;;;;;;;;;;21.50;30.20;;;;;;8336023;28;20384;-47
2022/04/19 17:14:31;;;;;;;;;;;21.50;30.20;;;;;;8336071;28;19933;-45
2022/04/19 17:18:32;;;;;;;;;;;21.50;30.20;;;;;;8335550;28;19917;-47
2022/04/19 17:22:32;;;;;;;;;;;21.50;30.20;;;;;;8335988;28;19914;-46
2022/04/19 17:26:33;;;;;;;;;;;21.50;30.20;;;;;;8334989;28;19917;-44
2022/04/19 17:30:33;;;;;;;;;;;21.50;30.20;;;;;;8343008;28;20442;-45
2022/04/19 17:34:34;;;;;;;;;;;21.50;30.20;;;;;;8335072;28;19934;-45
2022/04/19 17:38:34;;;;;;;;;;;21.50;30.20;;;;;;8334308;28;19978;-45
2022/04/19 17:42:35;;;;;;;;;;;21.50;30.30;;;;;;8334882;28;19952;-45
2022/04/19 17:46:35;;;;;;;;;;;21.50;30.30;;;;;;8334570;28;19963;-47
2022/04/19 17:59:14;;;;;;;;;;;21.40;30.30;;;;;;8333633;28;19968;-49
2022/04/19 18:03:14;;;;;;;;;;;21.50;30.40;;;;;;8333330;28;19999;-48
2022/04/19 18:07:16;;;;;;;;;;;21.50;30.30;;;;;;8334153;28;19917;-48
2022/04/19 18:11:16;;;;;;;;;;;21.40;30.30;;;;;;8334131;28;20385;-49
2022/04/19 18:15:17;;;;;;;;;;;21.40;30.30;;;;;;8333389;28;19917;-45
2022/04/19 18:19:17;;;;;;;;;;;21.40;30.30;;;;;;8333869;28;19917;-44
2022/04/19 18:27:41;;;;;;;;;;;21.40;30.30;;;;;;8333611;28;19924;-45
2022/04/19 18:31:41;;;;;;;;;;;21.40;30.30;;;;;;8359356;28;19924;-47
2022/04/19 18:35:42;;;;;;;;;;;21.40;30.90;;;;;;8365651;28;19956;-46
2022/04/19 18:39:43;;;;;;;;;;;21.40;30.30;;;;;;8366150;28;20277;-47
2022/04/19 18:43:43;;;;;;;;;;;21.40;30.30;;;;;;8366116;28;20310;-45
2022/04/19 18:47:44;;;;;;;;;;;21.40;30.30;;;;;;8365661;28;19951;-46
2022/04/19 18:51:44;;;;;;;;;;;21.40;30.30;;;;;;8365959;28;20009;-46
2022/04/19 18:55:45;;;;;;;;;;;21.40;30.20;;;;;;8365777;28;19917;-45
2022/04/19 18:59:45;;;;;;;;;;;21.40;30.30;;;;;;8365312;28;25100;-46
2022/04/19 19:03:46;;;;;;;;;;;21.40;30.20;;;;;;8364120;28;19925;-45
2022/04/19 19:07:47;;;;;;;;;;;21.40;30.20;;;;;;8365661;28;20029;-46
2022/04/19 19:11:47;;;;;;;;;;;21.40;30.20;;;;;;8364162;28;19925;-44
2022/04/19 19:15:48;;;;;;;;;;;21.40;30.20;;;;;;8365333;28;19917;-45
2022/04/19 19:19:48;;;;;;;;;;;21.40;30.20;;;;;;8364953;28;19978;-44
2022/04/19 19:23:50;;;;;;;;;;;21.40;30.20;;;;;;8364608;28;20376;-45
2022/04/19 19:27:50;;;;;;;;;;;21.30;30.10;;;;;;8364936;28;19932;-44
2022/04/19 19:31:52;;;;;;;;;;;21.30;30.10;;;;;;8364258;28;20373;-46
2022/04/19 19:35:53;;;;;;;;;;;21.30;30.10;;;;;;8363820;28;19925;-46
2022/04/19 19:39:54;;;;;;;;;;;21.30;30.10;;;;;;8364451;28;19921;-46
2022/04/19 19:43:55;;;;;;;;;;;21.30;30.00;;;;;;8364299;28;19913;-45
2022/04/19 19:47:55;;;;;;;;;;;21.30;30.10;;;;;;8363646;28;20356;-48
2022/04/19 19:51:56;;;;;;;;;;;21.30;30.10;;;;;;8363660;28;20395;-45
2022/04/19 19:55:57;;;;;;;;;;;21.30;30.00;;;;;;8363996;28;20320;-46
2022/04/19 19:59:57;;;;;;;;;;;21.30;30.10;;;;;;8363268;28;19917;-45
2022/04/19 20:03:58;;;;;;;;;;;21.30;30.10;;;;;;8363503;28;19982;-47
2022/04/19 20:08:01;;;;;;;;;;;21.30;30.10;;;;;;8363579;28;19916;-46
2022/04/19 20:12:02;;;;;;;;;;;21.30;30.00;;;;;;8362989;28;19929;-46
2022/04/19 20:16:03;;;;;;;;;;;21.30;30.00;;;;;;8363184;28;19923;-45
2022/04/19 20:20:05;;;;;;;;;;;21.30;30.00;;;;;;8363441;28;19917;-45
2022/04/19 20:24:09;;;;;;;;;;;21.30;30.00;;;;;;8362228;28;19913;-45
2022/04/19 20:28:12;;;;;;;;;;;21.30;30.00;;;;;;8363014;28;19917;-45
2022/04/19 20:32:12;;;;;;;;;;;21.30;30.00;;;;;;8363071;28;20382;-46
2022/04/19 20:36:13;;;;;;;;;;;21.30;30.00;;;;;;8362534;28;20011;-45
2022/04/19 20:40:13;;;;;;;;;;;21.30;30.00;;;;;;8363235;28;19921;-47
2022/04/19 20:44:17;;;;;;;;;;;21.30;30.00;;;;;;8363188;28;19917;-46
2022/04/19 20:53:03;;;;;;;;;;;21.30;30.10;;;;;;8367621;28;19964;-45
2022/04/19 20:57:05;;;;;;;;;;;21.30;30.10;;;;;;8358412;28;19916;-45
2022/04/19 21:01:06;;;;;;;;;;;21.30;30.10;;;;;;8362851;28;19924;-45
2022/04/19 21:05:08;;;;;;;;;;;21.30;30.10;;;;;;8362481;28;20055;-45
2022/04/19 21:09:08;;;;;;;;;;;21.20;30.20;;;;;;8362336;28;19913;-47
2022/04/19 21:13:09;;;;;;;;;;;21.20;30.10;;;;;;8362341;28;20385;-46
2022/04/19 21:17:10;;;;;;;;;;;21.20;30.20;;;;;;8362381;28;19916;-44
2022/04/19 21:21:10;;;;;;;;;;;21.20;30.10;;;;;;8361827;28;19916;-46
2022/04/19 21:25:12;;;;;;;;;;;21.20;30.10;;;;;;8362541;28;19917;-46
2022/04/19 21:29:12;;;;;;;;;;;21.20;30.20;;;;;;8362397;28;19917;-44
2022/04/19 21:33:13;;;;;;;;;;;21.20;30.20;;;;;;8361461;28;20014;-44
2022/04/19 21:37:13;;;;;;;;;;;21.20;30.20;;;;;;8367622;28;20147;-46
2022/04/19 21:41:14;;;;;;;;;;;21.20;30.10;;;;;;8368060;28;19924;-44
2022/04/19 21:45:14;;;;;;;;;;;21.20;30.20;;;;;;8367404;28;20008;-45
2022/04/19 21:49:15;;;;;;;;;;;21.20;30.20;;;;;;8367965;28;19920;-47
2022/04/19 21:53:15;;;;;;;;;;;21.20;30.20;;;;;;8367445;28;19986;-45
2022/04/19 21:57:16;;;;;;;;;;;21.20;30.20;;;;;;8367065;28;19917;-45
2022/04/19 22:01:18;;;;;;;;;;;21.10;30.10;;;;;;8356146;28;20386;-46
2022/04/19 22:05:19;;;;;;;;;;;21.10;30.10;;;;;;8334537;28;20395;-45
2022/04/19 22:09:20;;;;;;;;;;;21.10;30.10;;;;;;8333959;28;20004;-44
2022/04/19 22:13:20;;;;;;;;;;;21.10;30.00;;;;;;8334175;28;19953;-45
2022/04/19 22:17:21;;;;;;;;;;;21.10;30.00;;;;;;8334221;28;19924;-47
2022/04/19 22:21:21;;;;;;;;;;;21.10;30.00;;;;;;8333346;28;19928;-46
2022/04/19 22:25:22;;;;;;;;;;;21.10;30.00;;;;;;8333871;28;19973;-45
2022/04/19 22:29:22;;;;;;;;;;;21.10;30.00;;;;;;8333974;28;20366;-46
2022/04/19 22:33:22;;;;;;;;;;;21.10;30.00;;;;;;8332889;28;19932;-46
2022/04/19 22:37:23;;;;;;;;;;;21.10;30.00;;;;;;8333196;28;20023;-46
2022/04/19 22:41:23;;;;;;;;;;;21.10;30.00;;;;;;8333258;28;20338;-47
2022/04/19 22:45:24;;;;;;;;;;;21.10;30.00;;;;;;8332058;28;19921;-45
2022/04/19 22:49:24;;;;;;;;;;;21.00;30.00;;;;;;8333314;28;19913;-46
2022/04/19 22:53:25;;;;;;;;;;;21.00;30.00;;;;;;8332841;28;19925;-46
2022/04/19 22:57:26;;;;;;;;;;;21.00;30.00;;;;;;8332088;28;19917;-46
2022/04/19 23:01:27;;;;;;;;;;;21.00;30.00;;;;;;8332619;28;20366;-47
2022/04/19 23:05:27;;;;;;;;;;;21.00;30.00;;;;;;8331973;28;19921;-44
2022/04/19 23:09:28;;;;;;;;;;;21.00;30.00;;;;;;8332623;28;19967;-49
2022/04/19 23:13:28;;;;;;;;;;;21.00;30.00;;;;;;8332160;28;19925;-46
2022/04/19 23:17:29;;;;;;;;;;;20.90;30.00;;;;;;8331643;28;19913;-49
2022/04/19 23:21:29;;;;;;;;;;;21.00;30.00;;;;;;8331887;28;19913;-48
2022/04/19 23:25:30;;;;;;;;;;;20.90;30.00;;;;;;8332202;28;19917;-45
2022/04/19 23:29:31;;;;;;;;;;;20.90;30.00;;;;;;8331202;28;20240;-45
2022/04/19 23:33:31;;;;;;;;;;;21.00;30.00;;;;;;8331732;28;19925;-45
2022/04/19 23:37:32;;;;;;;;;;;20.90;30.00;;;;;;8331444;28;20263;-47
2022/04/19 23:41:32;;;;;;;;;;;20.90;30.00;;;;;;8330790;28;19974;-45
2022/04/19 23:45:32;;;;;;;;;;;20.90;30.00;;;;;;8331644;28;19920;-47
2022/04/19 23:49:33;;;;;;;;;;;20.90;30.00;;;;;;8331393;28;20012;-45
2022/04/19 23:53:33;;;;;;;;;;;20.90;30.00;;;;;;8330398;28;20267;-45
2022/04/19 23:57:34;;;;;;;;;;;20.80;30.00;;;;;;8330096;28;19917;-45
